createdAt,value
2018-05-12T00:01:44.581Z,4.23
2018-05-12T00:04:21.104Z,4.67
2018-05-12T00:06:49.869Z,4.50
2018-05-12T00:09:20.493Z,4.67
2018-05-12T00:11:49.445Z,5.00
2018-05-12T00:14:22.905Z,4.70
2018-05-12T00:16:51.820Z,7.27
2018-05-12T00:19:25.956Z,4.77
2018-05-12T00:21:54.774Z,5.83
2018-05-12T00:24:27.446Z,6.20
2018-05-12T00:26:56.525Z,6.40
2018-05-12T00:29:28.798Z,6.20
2018-05-12T00:31:57.982Z,7.57
2018-05-12T00:34:34.195Z,7.27
2018-05-12T00:37:02.955Z,5.97
2018-05-12T00:39:32.550Z,5.90
2018-05-12T00:42:01.425Z,8.03
2018-05-12T00:44:42.958Z,7.43
2018-05-12T00:47:12.048Z,6.33
2018-05-12T00:49:40.919Z,8.43
2018-05-12T00:52:09.731Z,6.57
2018-05-12T00:54:39.437Z,7.43
2018-05-12T00:57:08.275Z,8.83
2018-05-12T00:59:50.028Z,7.13
2018-05-12T01:02:18.708Z,6.90
2018-05-12T01:04:47.575Z,6.50
2018-05-12T01:07:16.613Z,6.57
2018-05-12T01:09:47.029Z,6.57
2018-05-12T01:12:17.386Z,6.80
2018-05-12T01:14:49.335Z,6.23
2018-05-12T01:17:18.949Z,6.30
2018-05-12T01:19:52.456Z,6.87
2018-05-12T01:22:21.299Z,7.13
2018-05-12T01:25:02.577Z,6.13
2018-05-12T01:27:31.623Z,7.00
2018-05-12T01:30:00.476Z,8.43
2018-05-12T01:32:29.289Z,7.53
2018-05-12T01:34:59.644Z,6.23
2018-05-12T01:37:28.397Z,8.93
2018-05-12T01:40:02.117Z,8.73
2018-05-12T01:42:31.357Z,6.97
2018-05-12T01:45:16.103Z,6.73
2018-05-12T01:47:45.227Z,8.43
2018-05-12T01:50:14.119Z,7.90
2018-05-12T01:52:42.864Z,7.50
2018-05-12T01:55:11.930Z,7.23
2018-05-12T01:57:40.786Z,8.10
2018-05-12T02:00:13.137Z,6.67
2018-05-12T02:02:42.187Z,9.57
2018-05-12T02:05:15.427Z,9.33
2018-05-12T02:07:44.367Z,8.80
2018-05-12T02:10:21.984Z,6.27
2018-05-12T02:12:50.876Z,6.97
2018-05-12T02:15:19.605Z,8.60
2018-05-12T02:17:49.541Z,7.23
2018-05-12T02:20:21.218Z,10.73
2018-05-12T02:22:50.440Z,6.47
2018-05-12T02:25:23.191Z,6.33
2018-05-12T02:27:51.917Z,6.63
2018-05-12T02:30:27.892Z,6.40
2018-05-12T02:32:56.873Z,7.07
2018-05-12T02:35:27.623Z,6.93
2018-05-12T02:37:56.363Z,7.93
2018-05-12T02:40:29.773Z,5.73
2018-05-12T02:42:58.621Z,7.07
2018-05-12T02:45:35.036Z,8.33
2018-05-12T02:48:03.788Z,6.80
2018-05-12T02:50:34.307Z,9.10
2018-05-12T02:53:03.326Z,6.43
2018-05-12T02:55:44.881Z,7.73
2018-05-12T02:58:17.347Z,11.07
2018-05-12T03:00:46.892Z,6.93
2018-05-12T03:03:15.733Z,7.03
2018-05-12T03:05:45.531Z,7.17
2018-05-12T03:08:14.278Z,6.93
2018-05-12T03:10:43.833Z,6.87
2018-05-12T03:13:12.896Z,6.77
2018-05-12T03:15:45.819Z,7.03
2018-05-12T03:18:29.173Z,9.03
2018-05-12T03:20:57.993Z,6.93
2018-05-12T03:23:26.676Z,6.77
2018-05-12T03:25:55.903Z,7.60
2018-05-12T03:28:24.743Z,6.50
2018-05-12T03:30:53.657Z,6.50
2018-05-12T03:33:22.765Z,8.23
2018-05-12T03:35:58.616Z,6.67
2018-05-12T03:38:27.343Z,6.83
2018-05-12T03:40:58.108Z,7.10
2018-05-12T03:43:26.871Z,7.57
2018-05-12T03:46:03.465Z,7.07
2018-05-12T03:48:32.179Z,7.67
2018-05-12T03:51:04.903Z,7.90
2018-05-12T03:53:40.909Z,7.67
2018-05-12T03:56:09.820Z,7.87
2018-05-12T03:58:38.544Z,8.07
2018-05-12T04:01:08.986Z,9.97
2018-05-12T04:03:38.150Z,8.10
2018-05-12T04:06:26.335Z,10.30
2018-05-12T04:10:11.824Z,7.97
2018-05-12T04:12:40.792Z,8.27
2018-05-12T04:15:14.315Z,8.70
2018-05-12T04:17:43.077Z,8.27
2018-05-12T04:20:32.943Z,9.87
2018-05-12T04:23:01.677Z,8.37
2018-05-12T04:25:47.800Z,8.77
2018-05-12T04:28:21.022Z,9.53
2018-05-12T04:30:49.859Z,8.80
2018-05-12T04:33:31.320Z,12.50
2018-05-12T04:36:13.368Z,9.47
2018-05-12T04:38:42.905Z,8.43
2018-05-12T04:41:11.664Z,8.93
2018-05-12T04:43:41.573Z,8.57
2018-05-12T04:46:11.019Z,8.47
2018-05-12T04:48:39.791Z,9.27
2018-05-12T04:51:08.907Z,8.87
2018-05-12T04:54:01.582Z,8.90
2018-05-12T04:56:38.362Z,9.33
2018-05-12T04:59:07.928Z,11.57
2018-05-12T05:01:50.595Z,11.57
2018-05-12T05:04:20.242Z,9.67
2018-05-12T05:06:48.959Z,10.50
2018-05-12T05:09:18.221Z,11.03
2018-05-12T05:11:46.967Z,10.63
2018-05-12T05:14:15.735Z,12.93
2018-05-12T05:16:45.085Z,10.67
2018-05-12T05:19:13.852Z,10.30
2018-05-12T05:21:51.101Z,12.63
2018-05-12T05:24:20.257Z,16.17
2018-05-12T05:26:56.296Z,11.50
2018-05-12T05:29:28.579Z,10.73
2018-05-12T05:31:57.341Z,11.17
2018-05-12T05:34:26.155Z,10.00
2018-05-12T05:36:55.349Z,10.00
2018-05-12T05:39:31.248Z,9.30
2018-05-12T05:42:00.055Z,10.87
2018-05-12T05:44:45.935Z,10.13
2018-05-12T05:47:17.292Z,9.43
2018-05-12T05:49:46.066Z,12.13
2018-05-12T05:52:18.282Z,10.50
2018-05-12T05:54:47.005Z,8.90
2018-05-12T05:57:15.766Z,8.50
2018-05-12T05:59:44.801Z,7.40
2018-05-12T06:02:13.530Z,8.27
2018-05-12T06:04:42.324Z,10.80
2018-05-12T06:07:11.689Z,8.57
2018-05-12T06:09:40.393Z,12.30
2018-05-12T06:12:10.868Z,8.67
2018-05-12T06:14:40.060Z,8.47
2018-05-12T06:17:16.228Z,7.80
2018-05-12T06:19:45.013Z,8.23
2018-05-12T06:22:16.708Z,8.07
2018-05-12T06:24:46.291Z,6.90
2018-05-12T06:27:18.881Z,7.70
2018-05-12T06:29:47.624Z,7.57
2018-05-12T06:32:19.565Z,7.57
2018-05-12T06:37:31.163Z,7.90
2018-05-12T06:40:00.108Z,7.70
2018-05-12T06:42:29.305Z,8.20
2018-05-12T06:44:58.189Z,9.27
2018-05-12T06:47:27.258Z,7.87
2018-05-12T06:49:56.370Z,8.37
2018-05-12T06:52:28.785Z,6.90
2018-05-12T06:54:58.304Z,6.43
2018-05-12T06:57:31.288Z,15.10
2018-05-12T07:00:00.069Z,6.00
2018-05-12T07:02:46.389Z,7.53
2018-05-12T07:05:15.307Z,9.47
2018-05-12T07:07:44.220Z,7.87
2018-05-12T07:10:12.985Z,6.50
2018-05-12T07:12:42.397Z,6.93
2018-05-12T07:15:11.241Z,8.80
2018-05-12T07:17:41.554Z,6.37
2018-05-12T07:20:11.041Z,5.90
2018-05-12T07:22:40.877Z,5.17
2018-05-12T07:25:10.550Z,5.93
2018-05-12T07:27:43.746Z,7.30
2018-05-12T07:30:17.634Z,6.73
2018-05-12T07:32:46.513Z,5.30
2018-05-12T07:35:18.886Z,5.23
2018-05-12T07:37:47.977Z,3.20
2018-05-12T07:40:16.786Z,4.43
2018-05-12T07:42:53.339Z,3.40
2018-05-12T07:45:22.333Z,5.10
2018-05-12T07:47:54.417Z,4.30
2018-05-12T07:50:23.327Z,4.17
2018-05-12T07:52:56.158Z,4.33
2018-05-12T07:55:24.958Z,5.20
2018-05-12T07:58:01.741Z,4.10
2018-05-12T08:00:31.526Z,5.07
2018-05-12T08:03:01.081Z,4.53
2018-05-12T08:05:29.886Z,4.20
2018-05-12T08:08:04.366Z,5.97
2018-05-12T08:10:33.173Z,4.13
2018-05-12T08:13:14.376Z,5.10
2018-05-12T08:15:44.241Z,3.93
2018-05-12T08:18:13.064Z,5.77
2018-05-12T08:20:42.591Z,3.27
2018-05-12T08:23:13.150Z,2.77
2018-05-12T08:25:41.973Z,2.40
2018-05-12T08:28:19.082Z,3.27
2018-05-12T08:30:48.825Z,2.97
2018-05-12T08:33:17.755Z,1.63
2018-05-12T08:35:46.566Z,2.67
2018-05-12T08:38:19.999Z,2.30
2018-05-12T08:40:48.795Z,1.73
2018-05-12T08:43:24.968Z,2.40
2018-05-12T08:45:53.997Z,1.83
2018-05-12T08:48:23.844Z,2.93
2018-05-12T08:50:53.404Z,1.77
2018-05-12T08:53:26.469Z,2.00
2018-05-12T08:55:55.248Z,2.53
2018-05-12T08:58:27.910Z,3.53
2018-05-12T09:00:57.130Z,1.03
2018-05-12T09:03:32.970Z,2.43
2018-05-12T09:06:01.809Z,2.90
2018-05-12T09:08:32.561Z,1.77
2018-05-12T09:11:01.332Z,2.00
2018-05-12T09:13:34.224Z,1.10
2018-05-12T09:16:03.301Z,1.80
2018-05-12T09:21:10.152Z,6.20
2018-05-12T09:23:40.389Z,1.40
2018-05-12T09:26:09.247Z,2.17
2018-05-12T09:28:45.665Z,1.20
2018-05-12T09:31:14.695Z,1.33
2018-05-12T09:33:46.036Z,2.70
2018-05-12T09:36:14.855Z,1.27
2018-05-12T09:38:48.445Z,2.70
2018-05-12T09:41:17.335Z,3.07
2018-05-12T09:43:49.913Z,2.50
2018-05-12T09:46:19.852Z,1.77
2018-05-12T09:48:52.365Z,2.80
2018-05-12T09:51:21.204Z,1.70
2018-05-12T09:53:57.998Z,3.03
2018-05-12T09:56:26.888Z,1.53
2018-05-12T09:58:57.881Z,2.40
2018-05-12T10:01:26.813Z,2.37
2018-05-12T10:04:03.097Z,1.77
2018-05-12T10:06:32.732Z,1.30
2018-05-12T10:09:03.620Z,3.03
2018-05-12T10:11:33.534Z,3.87
2018-05-12T10:14:05.991Z,1.30
2018-05-12T10:16:36.831Z,0.87
2018-05-12T10:19:09.270Z,1.70
2018-05-12T10:21:39.280Z,1.83
2018-05-12T10:24:11.961Z,1.90
2018-05-12T10:26:41.850Z,3.67
2018-05-12T10:29:15.086Z,1.70
2018-05-12T10:31:43.902Z,2.80
2018-05-12T10:34:17.030Z,3.67
2018-05-12T10:36:46.567Z,5.50
2018-05-12T10:39:19.257Z,2.73
2018-05-12T10:41:48.325Z,2.50
2018-05-12T10:44:21.109Z,1.73
2018-05-12T10:46:49.933Z,1.40
2018-05-12T10:49:22.797Z,2.20
2018-05-12T10:51:51.620Z,3.43
2018-05-12T10:54:27.852Z,1.20
2018-05-12T10:56:56.940Z,1.67
2018-05-12T10:59:27.473Z,2.20
2018-05-12T11:01:56.282Z,2.13
2018-05-12T11:04:28.575Z,2.60
2018-05-12T11:06:58.141Z,1.27
2018-05-12T11:09:34.099Z,2.00
2018-05-12T11:12:03.131Z,1.20
2018-05-12T11:14:32.711Z,1.37
2018-05-12T11:17:01.693Z,1.87
2018-05-12T11:19:38.034Z,2.93
2018-05-12T11:22:06.831Z,2.60
2018-05-12T11:24:37.617Z,1.90
2018-05-12T11:27:07.441Z,0.97
2018-05-12T11:29:45.682Z,2.93
2018-05-12T11:32:14.570Z,0.87
2018-05-12T11:34:43.382Z,2.13
2018-05-12T11:37:12.904Z,1.93
2018-05-12T11:39:49.142Z,2.23
2018-05-12T11:42:18.123Z,1.40
2018-05-12T11:44:50.207Z,1.87
2018-05-12T11:47:19.394Z,1.23
2018-05-12T11:49:55.588Z,0.80
2018-05-12T11:52:25.218Z,1.23
2018-05-12T11:54:54.015Z,1.63
2018-05-12T11:57:22.791Z,0.70
2018-05-12T11:59:55.395Z,2.83
2018-05-12T12:02:24.212Z,1.00
2018-05-12T12:05:00.752Z,2.30
2018-05-12T12:07:29.510Z,0.80
2018-05-12T12:10:00.155Z,1.17
2018-05-12T12:12:29.388Z,1.37
2018-05-12T12:15:05.374Z,2.50
2018-05-12T12:17:35.094Z,1.30
2018-05-12T12:20:06.153Z,1.10
2018-05-12T12:22:35.002Z,2.37
2018-05-12T12:25:11.599Z,2.10
2018-05-12T12:27:41.125Z,1.20
2018-05-12T12:30:11.711Z,2.07
2018-05-12T12:32:40.852Z,1.50
2018-05-12T12:35:17.309Z,1.57
2018-05-12T12:37:47.217Z,1.50
2018-05-12T12:40:16.753Z,3.03
2018-05-12T12:42:45.553Z,1.33
2018-05-12T12:45:22.153Z,2.87
2018-05-12T12:47:52.030Z,1.30
2018-05-12T12:50:22.139Z,1.93
2018-05-12T12:52:53.316Z,1.63
2018-05-12T12:55:23.604Z,2.33
2018-05-12T12:57:52.426Z,1.83
2018-05-12T13:00:29.379Z,1.00
2018-05-12T13:02:58.234Z,2.73
2018-05-12T13:05:28.692Z,1.40
2018-05-12T13:07:57.465Z,1.30
2018-05-12T13:10:29.872Z,1.13
2018-05-12T13:12:58.684Z,2.00
2018-05-12T13:15:34.713Z,1.30
2018-05-12T13:18:03.831Z,0.90
2018-05-12T13:20:36.292Z,0.80
2018-05-12T13:23:05.228Z,2.13
2018-05-12T13:25:36.852Z,1.03
2018-05-12T13:28:06.515Z,1.67
2018-05-12T13:30:39.426Z,3.13
2018-05-12T13:33:08.539Z,2.57
2018-05-12T13:35:41.581Z,1.40
2018-05-12T13:38:10.501Z,3.03
2018-05-12T13:40:48.782Z,1.10
2018-05-12T13:43:17.686Z,2.23
2018-05-12T13:45:46.542Z,1.53
2018-05-12T13:48:15.734Z,1.30
2018-05-12T13:50:48.238Z,3.80
2018-05-12T13:53:17.076Z,1.97
2018-05-12T13:55:55.226Z,2.03
2018-05-12T13:58:24.634Z,3.00
2018-05-12T14:00:53.971Z,2.63
2018-05-12T14:03:24.021Z,1.77
2018-05-12T14:05:57.630Z,3.40
2018-05-12T14:08:26.506Z,3.03
2018-05-12T14:11:03.434Z,2.93
2018-05-12T14:13:32.238Z,5.33
2018-05-12T14:16:02.687Z,2.60
2018-05-12T14:18:31.469Z,4.97
2018-05-12T14:21:04.377Z,2.73
2018-05-12T14:23:33.345Z,2.20
2018-05-12T14:26:10.700Z,4.90
2018-05-12T14:28:39.732Z,2.20
2018-05-12T14:31:10.641Z,2.70
2018-05-12T14:33:39.548Z,3.10
2018-05-12T14:36:13.777Z,2.77
2018-05-12T14:38:43.469Z,2.20
2018-05-12T14:41:16.439Z,2.20
2018-05-12T14:43:45.627Z,3.70
2018-05-12T14:46:18.250Z,2.90
2018-05-12T14:48:47.145Z,1.90
2018-05-12T14:51:24.308Z,2.50
2018-05-12T14:53:53.952Z,2.90
2018-05-12T14:56:22.922Z,3.83
2018-05-12T14:58:52.271Z,3.07
2018-05-12T15:01:24.724Z,3.07
2018-05-12T15:03:54.266Z,2.87
2018-05-12T15:06:27.759Z,2.20
2018-05-12T15:08:56.585Z,4.00
2018-05-12T15:11:36.712Z,2.70
2018-05-12T15:14:05.948Z,3.63
2018-05-12T15:16:34.894Z,3.57
2018-05-12T15:19:04.853Z,3.40
2018-05-12T15:21:33.995Z,3.63
2018-05-12T15:24:02.805Z,2.30
2018-05-12T15:26:35.566Z,3.60
2018-05-12T15:29:04.754Z,2.90
2018-05-12T15:33:07.617Z,3.07
2018-05-12T15:35:44.611Z,4.10
2018-05-12T15:38:13.463Z,2.40
2018-05-12T15:40:46.149Z,1.90
2018-05-12T15:43:15.393Z,2.77
2018-05-12T15:45:47.812Z,3.20
2018-05-12T15:48:17.621Z,2.30
2018-05-12T15:50:50.534Z,5.17
2018-05-12T15:53:19.387Z,3.00
2018-05-12T15:55:52.255Z,2.80
2018-05-12T15:58:22.162Z,4.13
2018-05-12T16:00:55.981Z,4.07
2018-05-12T16:03:24.965Z,2.03
2018-05-12T16:06:02.244Z,2.43
2018-05-12T16:08:31.071Z,2.33
2018-05-12T16:10:59.927Z,3.37
2018-05-12T16:13:30.119Z,2.53
2018-05-12T16:16:02.693Z,4.23
2018-05-12T16:18:31.607Z,3.73
2018-05-12T16:21:07.894Z,4.90
2018-05-12T16:23:37.512Z,3.40
2018-05-12T16:26:10.054Z,2.73
2018-05-12T16:28:39.357Z,4.40
2018-05-12T16:31:15.241Z,2.63
2018-05-12T16:33:44.860Z,2.00
2018-05-12T16:36:13.871Z,2.37
2018-05-12T16:38:42.756Z,4.27
2018-05-12T16:41:18.931Z,3.10
2018-05-12T16:43:47.873Z,3.43
2018-05-12T16:46:18.138Z,2.40
2018-05-12T16:48:47.440Z,4.67
2018-05-12T16:51:19.994Z,3.47
2018-05-12T16:53:48.869Z,3.00
2018-05-12T16:56:22.499Z,4.17
2018-05-12T16:58:51.362Z,2.57
2018-05-12T17:01:24.497Z,2.97
2018-05-12T17:03:53.831Z,2.70
2018-05-12T17:06:27.150Z,3.40
2018-05-12T17:08:56.083Z,2.97
2018-05-12T17:11:30.717Z,2.50
2018-05-12T17:14:00.090Z,3.00
2018-05-12T17:16:32.583Z,2.97
2018-05-12T17:19:04.804Z,3.40
2018-05-12T17:21:33.860Z,3.43
2018-05-12T17:24:02.857Z,3.53
2018-05-12T17:26:36.783Z,3.70
2018-05-12T17:29:06.442Z,3.30
2018-05-12T17:31:38.709Z,5.93
2018-05-12T17:34:09.046Z,3.37
2018-05-12T17:36:41.520Z,3.73
2018-05-12T17:39:10.436Z,3.43
2018-05-12T17:41:43.697Z,4.53
2018-05-12T17:44:12.779Z,4.07
2018-05-12T17:46:46.521Z,5.20
2018-05-12T17:49:16.985Z,4.10
2018-05-12T17:51:49.172Z,5.23
2018-05-12T17:54:17.995Z,3.57
2018-05-12T17:56:50.640Z,3.27
2018-05-12T17:59:19.594Z,3.57
2018-05-12T18:01:53.221Z,3.50
2018-05-12T18:04:22.016Z,3.87
2018-05-12T18:06:58.389Z,3.00
2018-05-12T18:09:27.401Z,3.47
2018-05-12T18:11:59.474Z,2.97
2018-05-12T18:14:28.853Z,2.87
2018-05-12T18:17:00.942Z,4.17
2018-05-12T18:19:30.063Z,4.10
2018-05-12T18:22:06.170Z,3.90
2018-05-12T18:24:35.532Z,4.37
2018-05-12T18:27:07.561Z,3.37
2018-05-12T18:29:36.669Z,3.37
2018-05-12T18:32:13.534Z,3.60
2018-05-12T18:34:43.323Z,3.47
2018-05-12T18:37:19.459Z,3.80
2018-05-12T18:39:48.398Z,3.50
2018-05-12T18:42:17.411Z,3.50
2018-05-12T18:44:47.452Z,4.03
2018-05-12T18:47:17.561Z,2.87
2018-05-12T18:49:46.506Z,3.03
2018-05-12T18:52:19.272Z,3.20
2018-05-12T18:54:48.103Z,4.57
2018-05-12T18:57:21.672Z,3.77
2018-05-12T18:59:50.896Z,4.80
2018-05-12T19:02:27.635Z,3.80
2018-05-12T19:04:56.496Z,3.27
2018-05-12T19:07:26.005Z,3.57
2018-05-12T19:09:54.915Z,3.97
2018-05-12T19:12:28.315Z,3.43
2018-05-12T19:17:30.785Z,2.93
2018-05-12T19:20:00.023Z,4.17
2018-05-12T19:22:32.963Z,3.43
2018-05-12T19:25:02.571Z,3.90
2018-05-12T19:27:34.456Z,3.23
2018-05-12T19:30:03.445Z,4.13
2018-05-12T19:32:39.811Z,3.97
2018-05-12T19:35:09.016Z,3.47
2018-05-12T19:37:39.278Z,4.20
2018-05-12T19:40:08.230Z,4.37
2018-05-12T19:42:45.263Z,4.57
2018-05-12T19:45:14.489Z,6.37
2018-05-12T19:47:43.381Z,4.87
2018-05-12T19:50:12.987Z,4.47
2018-05-12T19:52:49.217Z,5.23
2018-05-12T19:55:18.092Z,4.60
2018-05-12T19:57:49.805Z,3.90
2018-05-12T20:00:18.804Z,4.47
2018-05-12T20:02:51.465Z,3.93
2018-05-12T20:05:20.787Z,4.53
2018-05-12T20:07:58.334Z,5.13
2018-05-12T20:10:27.209Z,4.43
2018-05-12T20:12:56.602Z,6.07
2018-05-12T20:15:25.473Z,5.33
2018-05-12T20:17:58.802Z,6.10
2018-05-12T20:20:27.989Z,7.30
2018-05-12T20:23:04.919Z,4.37
2018-05-12T20:25:33.828Z,3.67
2018-05-12T20:28:03.616Z,4.63
2018-05-12T20:30:32.487Z,4.83
2018-05-12T20:33:05.587Z,4.63
2018-05-12T20:35:34.821Z,4.27
2018-05-12T20:38:12.138Z,4.67
2018-05-12T20:40:42.539Z,4.40
2018-05-12T20:43:12.322Z,4.13
2018-05-12T20:45:41.227Z,4.60
2018-05-12T20:48:14.271Z,4.67
2018-05-12T20:50:43.686Z,7.07
2018-05-12T20:53:19.949Z,7.77
2018-05-12T20:55:49.225Z,6.97
2018-05-12T20:58:23.293Z,5.03
2018-05-12T21:00:52.929Z,5.80
2018-05-12T21:03:21.721Z,4.77
2018-05-12T21:05:50.818Z,8.97
2018-05-12T21:08:27.730Z,4.77
2018-05-12T21:10:56.707Z,4.50
2018-05-12T21:13:25.631Z,4.83
2018-05-12T21:15:54.622Z,4.87
2018-05-12T21:18:27.616Z,5.20
2018-05-12T21:20:56.511Z,6.00
2018-05-12T21:23:30.327Z,6.77
2018-05-12T21:26:00.504Z,5.03
2018-05-12T21:28:31.870Z,5.83
2018-05-12T21:31:03.125Z,6.00
2018-05-12T21:33:34.175Z,5.35
2018-05-12T21:36:03.115Z,5.63
2018-05-12T21:38:40.402Z,5.43
2018-05-12T21:41:09.371Z,5.50
2018-05-12T21:43:39.840Z,5.90
2018-05-12T21:46:08.762Z,6.90
2018-05-12T21:48:40.811Z,5.67
2018-05-12T21:51:10.164Z,6.00
2018-05-12T21:53:42.986Z,6.70
2018-05-12T21:56:11.914Z,5.70
2018-05-12T21:58:47.717Z,6.03
2018-05-12T22:01:16.656Z,6.57
2018-05-12T22:03:48.298Z,6.10
2018-05-12T22:06:18.057Z,6.77
2018-05-12T22:08:50.893Z,6.33
2018-05-12T22:11:23.860Z,6.30
2018-05-12T22:13:54.714Z,7.37
2018-05-12T22:16:24.742Z,5.93
2018-05-12T22:18:54.721Z,6.23
2018-05-12T22:21:30.221Z,7.10
2018-05-12T22:24:04.040Z,6.13
2018-05-12T22:26:33.698Z,6.37
2018-05-12T22:29:03.499Z,6.53
2018-05-12T22:31:32.562Z,5.60
2018-05-12T22:34:03.996Z,6.60
2018-05-12T22:36:33.523Z,6.60
2018-05-12T22:39:06.507Z,6.60
2018-05-12T22:41:35.367Z,5.87
2018-05-12T22:44:07.745Z,6.80
2018-05-12T22:46:36.585Z,6.37
2018-05-12T22:49:12.922Z,6.10
2018-05-12T22:51:41.838Z,6.03
2018-05-12T22:54:15.682Z,5.77
2018-05-12T22:56:45.446Z,6.60
2018-05-12T22:59:16.057Z,6.03
2018-05-12T23:01:44.990Z,5.40
2018-05-12T23:04:21.406Z,5.30
2018-05-12T23:06:50.911Z,6.30
2018-05-12T23:09:20.792Z,5.43
2018-05-12T23:11:50.675Z,5.50
2018-05-12T23:14:22.301Z,6.70
2018-05-12T23:16:52.197Z,6.70
2018-05-12T23:19:33.949Z,6.40
2018-05-12T23:22:03.227Z,5.70
2018-05-12T23:24:32.902Z,6.60
2018-05-12T23:27:01.678Z,6.07
2018-05-12T23:29:30.928Z,4.67
2018-05-12T23:32:00.606Z,5.63
2018-05-12T23:34:30.400Z,5.50
2018-05-12T23:37:00.463Z,6.07
2018-05-12T23:39:32.556Z,6.87
2018-05-12T23:42:01.554Z,6.33
2018-05-12T23:44:43.563Z,6.13
2018-05-12T23:47:14.618Z,5.87
2018-05-12T23:49:43.834Z,5.37
2018-05-12T23:52:12.924Z,4.93
2018-05-12T23:54:42.633Z,5.17
2018-05-12T23:57:12.215Z,6.17
2018-05-12T23:59:42.223Z,4.93
